Time;durP1;ratioP1;P1;durP2;ratioP2;P2;SDS_P1;SDS_P2;PMS_P1;PMS_P2;Temp;Humidity;BMP_temperature;BMP_pressure;BME280_temperature;BME280_humidity;BME280_pressure;Samples;Min_cycle;Max_cycle;Signal;HPM_P1;HPM_P2
2023/01/13 00:02:00;;;;;;;6.88;1.85;;;11.10;96.60;;;;;;5033648;28;20363;-72
2023/01/13 00:04:26;;;;;;;8.63;2.28;;;10.80;96.90;;;;;;5018942;28;20097;-74
2023/01/13 00:06:52;;;;;;;8.02;2.20;;;10.80;96.90;;;;;;5027505;28;20028;-73
2023/01/13 00:09:18;;;;;;;7.93;2.22;;;10.80;97.00;;;;;;5028837;28;20133;-73
2023/01/13 00:11:43;;;;;;;6.55;2.00;;;10.80;97.10;;;;;;5027431;28;20087;-73
2023/01/13 00:14:09;;;;;;;8.55;2.25;;;10.70;97.20;;;;;;5022053;28;20033;-73
2023/01/13 00:16:35;;;;;;;7.15;1.92;;;10.70;97.40;;;;;;5040299;28;20029;-73
2023/01/13 00:19:01;;;;;;;6.07;2.25;;;10.70;97.20;;;;;;5038981;28;20044;-73
2023/01/13 00:21:26;;;;;;;8.30;2.50;;;10.60;97.40;;;;;;5038779;28;20036;-73
2023/01/13 00:23:54;;;;;;;7.95;2.80;;;10.70;97.30;;;;;;5039990;28;20087;-73
2023/01/13 00:26:21;;;;;;;;;;;10.60;97.40;;;;;;5042076;28;20075;-73
2023/01/13 00:28:47;;;;;;;7.70;2.13;;;10.50;97.40;;;;;;5028669;28;20172;-72
2023/01/13 00:31:15;;;;;;;9.48;2.40;;;10.60;97.20;;;;;;5035402;28;20024;-72
2023/01/13 00:33:41;;;;;;;7.65;2.25;;;10.60;97.30;;;;;;5039223;28;20044;-73
2023/01/13 00:36:11;;;;;;;6.05;1.90;;;10.80;96.90;;;;;;5029248;28;20039;-73
2023/01/13 00:38:38;;;;;;;6.80;2.00;;;10.90;96.60;;;;;;5031469;28;20025;-72
2023/01/13 00:41:06;;;;;;;6.47;1.92;;;11.00;96.40;;;;;;5030622;28;20475;-72
2023/01/13 00:43:34;;;;;;;9.05;2.05;;;11.00;96.50;;;;;;5027760;28;20395;-73
2023/01/13 00:46:00;;;;;;;7.38;2.42;;;11.00;96.60;;;;;;5041314;28;20037;-73
2023/01/13 00:48:27;;;;;;;8.02;2.78;;;10.90;96.60;;;;;;5041542;28;20079;-72
2023/01/13 00:50:54;;;;;;;5.63;2.28;;;10.80;97.00;;;;;;5038543;28;20083;-73
2023/01/13 00:53:20;;;;;;;6.85;2.38;;;10.70;97.00;;;;;;5027972;28;20035;-72
2023/01/13 00:55:47;;;;;;;13.00;2.83;;;10.60;97.30;;;;;;5030403;28;20017;-72
2023/01/13 01:13:46;;;;;;;9.20;2.95;;;10.80;96.70;;;;;;5298032;22;20087;-72
2023/01/13 01:16:15;;;;;;;7.38;2.50;;;10.90;96.40;;;;;;5019201;28;20029;-72
2023/01/13 01:34:13;;;;;;;3.72;1.02;;;10.70;96.60;;;;;;5442942;22;20053;-76
2023/01/13 01:36:39;;;;;;;6.35;1.80;;;10.90;96.30;;;;;;4996951;28;20111;-74
2023/01/13 01:39:05;;;;;;;7.00;1.75;;;10.80;96.30;;;;;;5004470;28;20480;-74
2023/01/13 01:41:34;;;;;;;4.20;1.15;;;10.90;96.20;;;;;;5018176;28;20737;-74
2023/01/13 01:44:55;;;;;;;8.57;1.70;;;10.90;96.10;;;;;;5001415;28;20029;-75
2023/01/13 01:47:23;;;;;;;4.55;1.17;;;11.00;96.00;;;;;;4955469;28;20039;-75
2023/01/13 01:49:49;;;;;;;6.55;1.60;;;11.10;96.00;;;;;;5009818;28;20037;-74
2023/01/13 01:52:31;;;;;;;6.40;1.40;;;11.10;96.00;;;;;;4997700;28;20026;-74
2023/01/13 01:55:05;;;;;;;4.05;1.20;;;11.10;96.10;;;;;;4997962;28;20149;-74
2023/01/13 01:57:50;;;;;;;6.75;1.92;;;11.00;96.20;;;;;;5014148;28;20025;-74
2023/01/13 02:00:16;;;;;;;5.15;1.73;;;11.00;96.20;;;;;;5020578;28;20037;-76
2023/01/13 02:02:46;;;;;;;5.65;1.63;;;11.00;96.20;;;;;;5004640;28;20032;-75
2023/01/13 02:18:32;;;;;;;8.63;1.80;;;11.00;96.30;;;;;;5626233;22;20053;-73
2023/01/13 02:21:21;;;;;;;5.78;1.52;;;10.90;96.40;;;;;;5021752;28;20124;-73
2023/01/13 02:34:13;;;;;;;8.35;2.05;;;10.30;97.60;;;;;;5384451;22;20168;-74
2023/01/13 02:36:58;;;;;;;6.88;1.73;;;10.20;97.80;;;;;;5035691;28;20025;-74
2023/01/13 02:39:28;;;;;;;6.28;1.75;;;10.20;97.60;;;;;;5038165;28;20124;-73
2023/01/13 02:45:29;;;;;;;5.07;1.50;;;10.30;97.50;;;;;;5011571;28;20047;-73
2023/01/13 02:47:58;;;;;;;8.07;1.98;;;10.30;97.30;;;;;;5022827;28;20115;-73
2023/01/13 02:50:31;;;;;;;6.75;1.65;;;10.30;97.40;;;;;;5035594;28;20090;-74
2023/01/13 02:53:42;;;;;;;5.43;1.27;;;10.40;97.10;;;;;;5020405;28;20033;-73
2023/01/13 02:56:10;;;;;;;6.63;1.80;;;10.60;97.00;;;;;;5013503;28;20064;-73
2023/01/13 03:11:49;;;;;;;5.43;1.27;;;10.90;96.70;;;;;;5858063;22;20096;-75
2023/01/13 03:14:28;;;;;;;5.97;1.40;;;10.90;96.60;;;;;;5052464;28;20031;-75
2023/01/13 03:32:30;;;;;;;7.75;1.52;;;11.00;96.80;;;;;;5293514;22;20074;-74
2023/01/13 03:48:09;;;;;;;5.32;1.48;;;10.90;97.10;;;;;;5450868;22;20056;-74
2023/01/13 03:50:40;;;;;;;4.43;1.42;;;11.00;97.30;;;;;;5056501;28;20040;-73
2023/01/13 04:03:41;;;;;;;6.25;1.70;;;10.80;97.30;;;;;;5339795;22;20084;-73
2023/01/13 04:26:50;;;;;;;7.47;1.52;;;10.50;97.50;;;;;;6060328;22;21606;-72
2023/01/13 04:29:16;;;;;;;7.45;2.08;;;10.50;97.80;;;;;;5057627;28;20036;-72
2023/01/13 04:44:36;;;;;;;6.22;1.95;;;10.40;97.70;;;;;;5035148;28;20138;-72
2023/01/13 04:59:59;;;;;;;8.40;2.22;;;10.20;97.80;;;;;;5176661;22;20052;-72
2023/01/13 05:17:58;;;;;;;7.68;2.20;;;9.90;98.20;;;;;;5331558;22;20075;-72
2023/01/13 05:20:24;;;;;;;5.50;2.15;;;9.90;98.40;;;;;;5059370;28;20032;-73
2023/01/13 05:43:44;;;;;;;8.13;1.92;;;10.00;98.10;;;;;;5054652;28;20083;-72
2023/01/13 06:01:44;;;;;;;6.95;1.83;;;10.40;97.00;;;;;;5787202;22;20155;-72
2023/01/13 06:04:09;;;;;;;9.77;2.17;;;10.30;97.20;;;;;;5052923;28;20103;-73
2023/01/13 06:06:36;;;;;;;7.32;1.50;;;10.20;97.30;;;;;;5051153;28;20136;-72
2023/01/13 06:09:01;;;;;;;6.30;1.73;;;10.20;97.20;;;;;;5059724;28;20517;-72
2023/01/13 06:11:27;;;;;;;5.75;1.92;;;10.20;97.40;;;;;;5058631;28;20025;-73
2023/01/13 06:13:53;;;;;;;5.18;1.90;;;10.20;97.40;;;;;;5059272;28;20696;-73
2023/01/13 06:31:52;;;;;;;7.00;2.22;;;10.10;97.80;;;;;;5178211;22;20802;-74
2023/01/13 06:34:18;;;;;;;10.00;2.58;;;10.10;97.80;;;;;;5059298;28;20028;-73
2023/01/13 06:36:48;;;;;;;7.72;2.63;;;10.30;97.60;;;;;;5055435;28;20067;-74
2023/01/13 06:39:18;;;;;;;9.48;2.75;;;10.30;97.60;;;;;;5063464;28;20020;-74
2023/01/13 06:44:30;;;;;;;7.88;2.15;;;10.40;97.40;;;;;;5063894;28;20035;-73
2023/01/13 06:59:54;;;;;;;8.50;2.33;;;10.60;97.40;;;;;;6063921;22;21432;-74
2023/01/13 07:02:20;;;;;;;7.85;2.92;;;10.50;97.60;;;;;;5058487;28;20044;-74
2023/01/13 07:04:47;;;;;;;8.48;2.63;;;10.50;97.60;;;;;;5058263;28;20024;-75
2023/01/13 07:07:13;;;;;;;11.10;3.05;;;10.50;97.70;;;;;;5063855;28;20035;-74
2023/01/13 07:09:39;;;;;;;7.63;2.65;;;10.40;97.70;;;;;;5057238;28;20118;-74
2023/01/13 07:12:05;;;;;;;6.95;2.42;;;10.40;97.70;;;;;;5059546;28;20036;-74
2023/01/13 07:17:23;;;;;;;6.78;2.30;;;10.50;97.60;;;;;;5058119;28;20032;-74
2023/01/13 07:19:52;;;;;;;7.50;2.72;;;10.50;97.70;;;;;;5059029;28;20643;-73
2023/01/13 07:22:20;;;;;;;7.75;3.08;;;10.50;97.60;;;;;;5060227;28;20043;-73
2023/01/13 07:24:46;;;;;;;7.90;2.53;;;10.50;97.60;;;;;;5059267;28;20037;-74
2023/01/13 07:27:11;;;;;;;5.90;1.90;;;10.70;97.50;;;;;;5059382;28;20444;-74
2023/01/13 07:29:37;;;;;;;6.68;2.20;;;10.80;97.20;;;;;;5059970;28;20141;-75
2023/01/13 07:32:04;;;;;;;6.15;1.90;;;10.90;97.00;;;;;;5059413;28;20104;-74
2023/01/13 07:34:30;;;;;;;9.20;2.30;;;11.00;96.90;;;;;;5052256;28;20037;-74
2023/01/13 07:36:56;;;;;;;7.30;2.08;;;11.10;96.60;;;;;;5040842;22;20054;-76
2023/01/13 07:39:23;;;;;;;6.00;1.67;;;11.20;96.50;;;;;;5008009;28;21023;-74
2023/01/13 07:44:33;;;;;;;5.80;2.03;;;11.40;96.30;;;;;;5001600;28;20132;-74
2023/01/13 07:46:59;;;;;;;8.13;1.90;;;11.50;96.20;;;;;;5004459;28;20026;-75
2023/01/13 07:49:25;;;;;;;6.25;1.80;;;11.50;96.20;;;;;;5007772;28;20053;-75
2023/01/13 07:51:51;;;;;;;7.93;2.10;;;11.60;96.20;;;;;;5004190;28;20037;-75
2023/01/13 07:54:17;;;;;;;7.32;1.90;;;11.60;96.20;;;;;;5006711;28;20063;-76
2023/01/13 07:56:43;;;;;;;7.72;1.80;;;11.60;96.20;;;;;;5001236;28;20049;-75
2023/01/13 07:59:09;;;;;;;9.30;2.03;;;11.70;96.30;;;;;;5002050;28;20476;-75
2023/01/13 08:01:36;;;;;;;9.13;2.38;;;11.70;96.30;;;;;;5002181;28;20041;-75
2023/01/13 08:04:02;;;;;;;;;;;11.70;96.30;;;;;;5008522;28;20759;-75
2023/01/13 08:06:28;;;;;;;7.90;2.65;;;11.70;96.20;;;;;;5002452;28;20008;-75
2023/01/13 08:08:55;;;;;;;6.15;2.10;;;11.70;96.20;;;;;;5001899;28;20033;-75
2023/01/13 08:11:21;;;;;;;7.35;1.98;;;11.70;96.30;;;;;;5006868;28;20042;-75
2023/01/13 08:13:49;;;;;;;13.02;4.22;;;11.70;96.50;;;;;;5007287;28;20029;-75
2023/01/13 08:16:15;;;;;;;7.68;2.47;;;11.70;96.60;;;;;;5006182;28;20098;-75
2023/01/13 08:18:42;;;;;;;7.88;2.13;;;11.60;96.70;;;;;;5005078;28;21129;-75
2023/01/13 08:21:14;;;;;;;7.50;2.15;;;11.60;96.70;;;;;;5004738;28;20034;-75
2023/01/13 08:23:42;;;;;;;9.00;2.28;;;11.60;96.60;;;;;;5007307;28;20381;-75
2023/01/13 08:26:15;;;;;;;6.15;1.90;;;11.70;96.60;;;;;;5001810;28;20132;-75
2023/01/13 08:28:41;;;;;;;9.27;2.45;;;11.60;96.60;;;;;;5016802;28;20096;-76
2023/01/13 08:31:10;;;;;;;6.72;2.15;;;11.60;96.70;;;;;;4999053;28;20041;-75
2023/01/13 08:33:37;;;;;;;6.97;1.98;;;11.60;96.60;;;;;;5003778;28;20026;-75
2023/01/13 08:36:05;;;;;;;7.20;2.33;;;11.60;96.60;;;;;;5005941;28;20105;-75
2023/01/13 08:38:32;;;;;;;9.00;2.70;;;11.60;96.60;;;;;;5003417;28;20057;-75
2023/01/13 08:40:59;;;;;;;8.23;1.67;;;11.60;96.60;;;;;;5006047;28;20477;-74
2023/01/13 08:43:26;;;;;;;8.18;2.55;;;11.60;96.50;;;;;;5006270;28;20104;-75
2023/01/13 08:45:56;;;;;;;9.15;3.03;;;11.60;96.50;;;;;;5006185;28;20810;-75
2023/01/13 08:48:22;;;;;;;7.82;2.20;;;11.60;96.50;;;;;;5008137;28;20116;-75
2023/01/13 08:50:47;;;;;;;5.85;1.70;;;11.70;96.40;;;;;;5009675;28;20033;-75
2023/01/13 08:53:13;;;;;;;7.18;1.85;;;11.80;96.20;;;;;;5012789;28;20033;-75
2023/01/13 08:55:39;;;;;;;7.85;2.15;;;11.80;96.30;;;;;;5006712;28;20037;-75
2023/01/13 08:58:06;;;;;;;7.85;2.00;;;11.90;96.30;;;;;;5002124;28;20425;-74
2023/01/13 09:00:32;;;;;;;6.97;2.10;;;12.00;96.00;;;;;;5007496;28;20022;-75
2023/01/13 09:02:58;;;;;;;8.73;1.77;;;12.10;95.90;;;;;;5006844;28;20025;-75
2023/01/13 09:05:25;;;;;;;7.30;2.28;;;12.30;95.90;;;;;;5003048;28;20044;-76
2023/01/13 09:07:50;;;;;;;10.63;2.45;;;12.40;95.60;;;;;;5006366;28;20116;-75
2023/01/13 09:10:17;;;;;;;8.07;2.10;;;12.50;95.60;;;;;;5006442;28;20489;-75
2023/01/13 09:15:29;;;;;;;8.95;2.38;;;12.60;95.70;;;;;;5002502;28;20119;-75
2023/01/13 09:17:56;;;;;;;;;;;12.60;95.90;;;;;;5004647;28;20041;-76
2023/01/13 09:20:22;;;;;;;10.65;3.72;;;12.30;96.40;;;;;;4987491;28;19940;-75
2023/01/13 09:22:48;;;;;;;7.57;3.10;;;12.20;96.60;;;;;;5006953;28;20034;-76
2023/01/13 09:25:13;;;;;;;10.80;3.17;;;12.10;96.60;;;;;;5024501;28;20026;-75
2023/01/13 09:27:39;;;;;;;11.75;3.00;;;12.20;96.40;;;;;;4998840;28;20022;-75
2023/01/13 09:30:08;;;;;;;8.35;2.92;;;12.40;96.30;;;;;;5005024;28;20061;-76
2023/01/13 09:32:37;;;;;;;8.98;2.75;;;12.50;96.00;;;;;;5006234;28;20037;-76
2023/01/13 09:35:04;;;;;;;7.57;2.95;;;12.70;95.90;;;;;;4982808;28;20036;-75
2023/01/13 09:37:39;;;;;;;7.97;2.88;;;13.00;95.80;;;;;;4988310;28;20796;-75
2023/01/13 09:40:11;;;;;;;8.18;2.90;;;13.20;95.40;;;;;;5003785;28;20033;-75
2023/01/13 09:46:42;;;;;;;9.85;3.13;;;14.80;94.30;;;;;;5004251;28;20151;-74
2023/01/13 09:49:02;;;;;;;8.85;2.28;;;15.40;93.40;;;;;;5000112;28;20041;-75
2023/01/13 09:51:45;;;;;;;11.30;2.67;;;15.10;93.00;;;;;;5002102;28;20029;-76
2023/01/13 09:54:19;;;;;;;10.63;2.90;;;14.70;93.00;;;;;;5003183;28;20186;-73
2023/01/13 09:56:45;;;;;;;8.98;2.85;;;14.60;92.80;;;;;;5002946;28;20152;-74
2023/01/13 09:59:15;;;;;;;8.85;2.83;;;14.70;93.50;;;;;;5001262;28;20110;-75
2023/01/13 10:02:01;;;;;;;8.18;2.50;;;14.60;93.60;;;;;;4998504;28;20030;-76
2023/01/13 10:04:27;;;;;;;9.20;3.55;;;14.30;93.70;;;;;;5002409;28;20132;-75
2023/01/13 10:07:00;;;;;;;10.80;3.22;;;14.20;93.80;;;;;;4999487;28;20101;-74
2023/01/13 10:09:42;;;;;;;9.98;3.20;;;14.00;94.00;;;;;;5017319;28;20100;-76
2023/01/13 10:15:00;;;;;;;8.13;2.85;;;14.20;93.80;;;;;;5001155;28;20080;-76
2023/01/13 10:17:44;;;;;;;8.70;2.78;;;14.30;93.70;;;;;;4999366;28;20061;-76
2023/01/13 10:20:18;;;;;;;6.95;2.30;;;14.30;93.70;;;;;;4999906;28;20128;-75
2023/01/13 10:22:57;;;;;;;8.98;3.10;;;14.20;93.50;;;;;;5002457;28;20037;-75
2023/01/13 10:25:26;;;;;;;;;;;14.20;93.70;;;;;;5017066;28;20515;-75
2023/01/13 10:27:54;;;;;;;12.15;3.53;;;14.30;93.80;;;;;;5002833;28;19954;-75
2023/01/13 10:30:31;;;;;;;10.05;3.22;;;14.60;93.50;;;;;;4998194;28;20038;-75
2023/01/13 10:33:00;;;;;;;9.02;3.30;;;14.50;93.30;;;;;;4999958;28;20034;-75
2023/01/13 10:35:51;;;;;;;10.82;3.40;;;15.10;93.40;;;;;;5003787;28;20018;-75
2023/01/13 10:38:22;;;;;;;9.73;3.03;;;16.20;92.30;;;;;;5001902;28;20061;-75
2023/01/13 10:40:54;;;;;;;8.88;3.30;;;16.80;91.00;;;;;;5001857;28;20026;-75
2023/01/13 10:43:21;;;;;;;;;;;17.40;90.80;;;;;;5003142;28;20034;-75
2023/01/13 10:46:11;;;;;;;9.43;3.10;;;17.90;90.50;;;;;;4981011;28;19933;-75
2023/01/13 10:48:50;;;;;;;8.25;2.97;;;17.80;88.70;;;;;;4986796;28;20046;-76
2023/01/13 10:51:23;;;;;;;9.43;3.40;;;17.70;89.80;;;;;;4999951;28;20531;-74
2023/01/13 10:54:00;;;;;;;9.20;3.17;;;17.50;89.70;;;;;;4998291;28;20057;-75
2023/01/13 10:56:32;;;;;;;10.73;2.90;;;17.80;89.50;;;;;;4995656;28;20034;-76
2023/01/13 10:59:23;;;;;;;10.95;4.00;;;17.30;90.10;;;;;;5002938;28;20029;-75
2023/01/13 11:02:00;;;;;;;7.32;2.92;;;17.50;90.00;;;;;;5000056;28;20089;-76
2023/01/13 11:04:33;;;;;;;12.20;3.28;;;17.90;89.20;;;;;;4998397;28;20033;-76
2023/01/13 11:07:01;;;;;;;8.73;2.50;;;17.90;88.60;;;;;;5000471;28;20026;-75
2023/01/13 11:09:30;;;;;;;7.38;2.90;;;17.50;88.90;;;;;;4996243;28;20136;-75
2023/01/13 11:11:56;;;;;;;9.15;2.92;;;18.20;88.20;;;;;;4998569;28;20025;-75
2023/01/13 11:14:32;;;;;;;;;;;17.70;88.80;;;;;;5002879;28;20022;-75
2023/01/13 11:17:01;;;;;;;7.53;3.05;;;18.30;87.80;;;;;;4998794;28;20791;-74
2023/01/13 11:19:31;;;;;;;7.30;2.75;;;18.40;88.00;;;;;;4995578;28;20502;-74
2023/01/13 11:22:18;;;;;;;8.10;2.70;;;18.90;86.30;;;;;;5000572;28;20087;-75
2023/01/13 11:24:54;;;;;;;6.65;2.05;;;19.10;86.40;;;;;;4997478;28;20113;-75
2023/01/13 11:27:35;;;;;;;6.80;2.35;;;19.20;85.70;;;;;;4999210;28;20053;-75
2023/01/13 11:30:19;;;;;;;8.15;2.97;;;20.40;84.80;;;;;;4997393;28;20030;-74
2023/01/13 11:33:14;;;;;;;6.63;2.88;;;18.90;85.30;;;;;;5000309;28;20049;-75
2023/01/13 11:35:58;;;;;;;7.28;3.13;;;18.30;86.60;;;;;;4988706;28;20064;-75
2023/01/13 11:38:28;;;;;;;;;;;18.80;86.80;;;;;;5001666;28;20121;-75
2023/01/13 11:41:05;;;;;;;7.85;2.70;;;19.30;86.40;;;;;;4997616;28;19917;-76
2023/01/13 11:43:54;;;;;;;6.95;2.83;;;20.20;85.40;;;;;;4998962;28;20495;-75
2023/01/13 11:46:24;;;;;;;8.27;3.88;;;19.50;85.00;;;;;;5001486;28;20377;-75
2023/01/13 11:48:55;;;;;;;7.45;3.10;;;19.10;85.10;;;;;;5005284;28;20021;-76
2023/01/13 11:51:56;;;;;;;9.55;3.67;;;19.10;85.70;;;;;;5003834;28;20088;-74
2023/01/13 11:54:37;;;;;;;10.85;4.95;;;18.80;86.30;;;;;;5001395;28;20033;-74
2023/01/13 11:57:21;;;;;;;13.88;5.97;;;20.10;86.60;;;;;;4998121;28;20048;-75
2023/01/13 12:00:28;;;;;;;14.05;6.90;;;20.70;85.30;;;;;;5018021;28;20048;-74
2023/01/13 12:03:31;;;;;;;12.77;7.65;;;20.40;85.80;;;;;;4991765;28;20127;-77
2023/01/13 12:06:10;;;;;;;13.48;7.60;;;19.20;87.70;;;;;;5005525;28;20026;-75
2023/01/13 12:08:58;;;;;;;15.23;7.35;;;19.90;87.70;;;;;;5005363;28;20029;-74
2023/01/13 12:14:37;;;;;;;11.50;6.20;;;20.30;85.90;;;;;;5001427;28;20040;-75
2023/01/13 12:17:13;;;;;;;14.73;6.45;;;20.70;85.90;;;;;;5000519;28;20117;-74
2023/01/13 12:19:47;;;;;;;11.20;6.43;;;20.70;84.60;;;;;;5001707;28;20033;-74
2023/01/13 12:22:26;;;;;;;14.32;6.22;;;21.60;83.80;;;;;;5004660;28;20779;-76
2023/01/13 12:25:13;;;;;;;14.20;6.70;;;22.30;83.40;;;;;;4987994;28;20058;-75
2023/01/13 12:27:48;;;;;;;15.55;5.15;;;23.20;82.10;;;;;;4998758;28;20048;-76
2023/01/13 12:30:31;;;;;;;12.75;6.30;;;23.00;80.70;;;;;;5005596;28;20109;-76
2023/01/13 12:33:24;;;;;;;11.55;5.13;;;22.60;81.40;;;;;;5018191;28;20068;-75
2023/01/13 12:36:08;;;;;;;10.23;4.50;;;23.50;80.00;;;;;;4994487;28;20108;-74
2023/01/13 12:38:35;;;;;;;;;;;24.10;79.10;;;;;;5019586;28;20546;-76
2023/01/13 12:41:34;;;;;;;9.38;4.15;;;24.40;78.30;;;;;;4999153;28;20363;-75
2023/01/13 12:44:15;;;;;;;13.00;5.05;;;25.00;77.30;;;;;;5019807;28;20030;-75
2023/01/13 12:46:51;;;;;;;10.38;4.22;;;25.20;76.90;;;;;;5000692;28;20037;-76
2023/01/13 12:49:22;;;;;;;9.15;4.40;;;24.50;77.30;;;;;;5004136;28;20033;-77
2023/01/13 12:51:53;;;;;;;8.77;4.57;;;24.50;77.20;;;;;;5000625;28;20058;-77
2023/01/13 12:54:38;;;;;;;11.02;4.40;;;24.30;77.60;;;;;;4997669;28;20046;-75
2023/01/13 12:57:33;;;;;;;9.82;4.60;;;24.40;77.20;;;;;;4998545;28;20093;-77
2023/01/13 13:00:02;;;;;;;9.15;4.65;;;24.70;76.70;;;;;;4997434;28;20041;-77
2023/01/13 13:02:33;;;;;;;10.45;5.28;;;25.00;76.60;;;;;;5003282;28;20080;-75
2023/01/13 13:05:21;;;;;;;9.63;5.43;;;25.90;75.80;;;;;;5001475;28;20120;-76
2023/01/13 13:07:59;;;;;;;9.23;5.03;;;26.70;74.70;;;;;;5000246;28;20049;-77
2023/01/13 13:10:36;;;;;;;11.82;5.65;;;26.60;74.20;;;;;;4999105;28;20040;-76
2023/01/13 13:13:19;;;;;;;11.13;4.78;;;26.00;74.70;;;;;;5003679;28;20566;-76
2023/01/13 13:15:47;;;;;;;11.93;4.90;;;26.30;74.50;;;;;;4998968;28;20026;-76
2023/01/13 13:18:26;;;;;;;10.07;4.90;;;26.20;74.20;;;;;;5002237;28;20126;-76
2023/01/13 13:21:10;;;;;;;8.07;4.80;;;26.50;73.80;;;;;;5003581;28;20050;-76
2023/01/13 13:23:46;;;;;;;;;;;26.50;74.30;;;;;;5013993;28;20048;-76
2023/01/13 13:26:22;;;;;;;8.07;4.22;;;25.90;74.10;;;;;;5001870;28;19944;-75
2023/01/13 13:29:23;;;;;;;10.30;5.10;;;25.80;73.70;;;;;;5004121;28;20030;-76
2023/01/13 13:32:30;;;;;;;10.07;5.25;;;25.60;74.00;;;;;;4989562;28;20064;-75
2023/01/13 13:35:17;;;;;;;12.05;5.78;;;25.70;74.40;;;;;;4954538;28;20042;-75
2023/01/13 13:46:45;;;;;;;11.45;5.15;;;26.10;73.70;;;;;;5006015;28;20472;-75
2023/01/13 13:49:18;;;;;;;10.18;5.07;;;25.80;73.40;;;;;;5017507;28;20046;-75
2023/01/13 13:52:10;;;;;;;9.13;5.10;;;25.30;73.60;;;;;;4992426;28;20084;-75
2023/01/13 13:54:43;;;;;;;12.35;5.78;;;25.80;73.60;;;;;;4994925;28;20042;-75
2023/01/13 13:57:33;;;;;;;11.38;6.13;;;26.90;72.60;;;;;;5011510;28;20397;-75
2023/01/13 14:00:05;;;;;;;11.38;5.32;;;27.30;72.30;;;;;;4997381;28;20117;-76
2023/01/13 14:02:36;;;;;;;10.07;5.22;;;27.50;71.40;;;;;;5018139;28;20038;-74
2023/01/13 14:05:26;;;;;;;10.20;4.78;;;26.70;71.60;;;;;;5017903;28;20128;-76
2023/01/13 14:07:57;;;;;;;;;;;26.80;71.60;;;;;;5006637;28;20040;-75
2023/01/13 14:10:33;;;;;;;12.38;5.68;;;26.80;71.60;;;;;;5003596;28;19913;-76
2023/01/13 14:13:11;;;;;;;11.80;4.95;;;26.30;71.70;;;;;;5003870;28;20030;-76
2023/01/13 14:15:39;;;;;;;8.65;4.75;;;26.50;72.00;;;;;;5003262;28;20040;-76
2023/01/13 14:18:14;;;;;;;9.55;4.90;;;27.10;71.10;;;;;;5003536;28;20028;-75
2023/01/13 14:20:50;;;;;;;12.13;5.45;;;27.00;71.50;;;;;;5006096;28;20033;-80
2023/01/13 14:23:17;;;;;;;11.15;5.15;;;26.60;70.90;;;;;;5002346;28;20499;-76
2023/01/13 14:25:49;;;;;;;10.70;4.88;;;24.90;72.00;;;;;;4991051;28;20764;-76
2023/01/13 14:28:24;;;;;;;8.77;5.07;;;23.90;73.30;;;;;;5002764;28;20065;-75
2023/01/13 14:30:51;;;;;;;12.00;4.45;;;24.50;74.00;;;;;;5001455;28;20084;-76
2023/01/13 14:33:29;;;;;;;11.15;5.25;;;25.40;73.00;;;;;;5003559;28;20037;-74
2023/01/13 14:36:17;;;;;;;10.85;5.15;;;24.90;73.30;;;;;;4999951;28;20030;-75
2023/01/13 14:38:48;;;;;;;8.80;4.65;;;24.00;74.00;;;;;;5002800;28;20121;-77
2023/01/13 14:41:18;;;;;;;12.93;5.60;;;24.40;73.70;;;;;;5002644;28;20026;-74
2023/01/13 14:43:48;;;;;;;11.98;4.93;;;23.60;74.10;;;;;;5002155;28;20733;-75
2023/01/13 14:46:16;;;;;;;12.18;5.57;;;23.50;75.10;;;;;;5007575;28;20652;-75
2023/01/13 14:48:46;;;;;;;16.30;5.93;;;22.60;75.80;;;;;;5003873;28;20037;-75
2023/01/13 14:51:20;;;;;;;14.65;5.63;;;22.30;76.90;;;;;;5003844;28;20026;-74
2023/01/13 14:53:47;;;;;;;13.77;6.22;;;22.70;76.40;;;;;;4992350;28;20576;-76
2023/01/13 14:56:54;;;;;;;16.40;6.50;;;22.80;76.60;;;;;;5007478;28;20088;-75
2023/01/13 14:59:54;;;;;;;14.40;5.47;;;23.00;76.50;;;;;;4953929;28;20038;-75
2023/01/13 15:02:29;;;;;;;12.52;5.53;;;23.10;76.40;;;;;;5012884;28;20385;-76
2023/01/13 15:05:18;;;;;;;12.65;6.07;;;23.60;76.20;;;;;;5002614;28;20091;-76
2023/01/13 15:08:05;;;;;;;14.25;5.88;;;23.00;76.60;;;;;;4982342;28;20034;-76
2023/01/13 15:10:37;;;;;;;12.90;6.18;;;23.10;77.00;;;;;;5017792;28;20117;-76
2023/01/13 15:13:04;;;;;;;;;;;22.70;77.30;;;;;;4998845;28;20026;-76
2023/01/13 15:15:35;;;;;;;12.20;6.55;;;22.60;77.30;;;;;;5000812;28;19924;-76
2023/01/13 15:18:16;;;;;;;17.27;7.47;;;22.60;77.50;;;;;;5002166;28;20030;-76
2023/01/13 15:20:42;;;;;;;14.45;6.50;;;21.10;78.00;;;;;;4980420;28;20389;-76
2023/01/13 15:23:09;;;;;;;14.73;7.28;;;20.10;80.10;;;;;;5007289;28;20038;-76
2023/01/13 15:25:40;;;;;;;13.90;6.88;;;20.50;80.60;;;;;;5005406;28;20882;-75
2023/01/13 15:28:24;;;;;;;14.25;7.05;;;20.60;80.50;;;;;;5004629;28;20030;-77
2023/01/13 15:30:52;;;;;;;18.10;7.55;;;21.00;79.40;;;;;;4994591;28;20441;-75
2023/01/13 15:33:20;;;;;;;16.30;7.35;;;20.30;80.90;;;;;;5006336;28;20025;-75
2023/01/13 15:35:49;;;;;;;20.02;8.07;;;20.10;81.60;;;;;;5003987;28;21050;-76
2023/01/13 15:38:18;;;;;;;17.33;7.55;;;19.80;82.50;;;;;;5002687;28;20069;-74
2023/01/13 15:40:44;;;;;;;16.67;7.22;;;18.70;84.10;;;;;;4999854;28;20544;-75
2023/01/13 15:48:43;;;;;;;17.63;7.28;;;20.00;82.20;;;;;;4999656;28;20237;-77
2023/01/13 15:51:11;;;;;;;14.70;7.70;;;20.60;81.50;;;;;;5001987;28;20037;-76
2023/01/13 15:53:37;;;;;;;17.67;7.75;;;20.60;81.20;;;;;;4984969;28;20069;-75
2023/01/13 15:56:04;;;;;;;;;;;20.50;81.60;;;;;;5004204;28;20967;-75
2023/01/13 15:58:30;;;;;;;18.75;7.68;;;20.70;81.40;;;;;;5004751;28;20015;-74
2023/01/13 16:00:56;;;;;;;15.35;6.88;;;20.20;81.80;;;;;;5002793;28;20018;-75
2023/01/13 16:03:22;;;;;;;16.60;7.53;;;20.30;81.50;;;;;;5005135;28;20395;-74
2023/01/13 16:05:49;;;;;;;18.88;7.47;;;19.90;82.10;;;;;;5001736;28;20041;-75
2023/01/13 16:08:17;;;;;;;16.25;7.25;;;19.50;82.70;;;;;;5005903;28;20033;-75
2023/01/13 16:10:43;;;;;;;18.48;7.30;;;19.50;83.00;;;;;;4996533;28;20227;-75
2023/01/13 16:13:10;;;;;;;22.92;7.35;;;19.20;83.60;;;;;;5017590;28;20025;-75
2023/01/13 16:15:48;;;;;;;16.33;6.78;;;19.20;83.50;;;;;;5007297;28;20030;-75
2023/01/13 16:18:19;;;;;;;14.85;7.25;;;18.90;83.90;;;;;;5020480;28;20030;-74
2023/01/13 16:20:46;;;;;;;16.30;6.85;;;18.30;85.00;;;;;;5001543;28;20109;-75
2023/01/13 16:23:14;;;;;;;16.45;6.90;;;17.50;86.80;;;;;;4987355;28;20029;-75
2023/01/13 16:25:42;;;;;;;16.58;7.13;;;16.80;88.10;;;;;;5000762;28;20096;-74
2023/01/13 16:28:25;;;;;;;18.08;6.93;;;16.40;89.60;;;;;;5003501;28;20022;-75
2023/01/13 16:30:51;;;;;;;19.27;7.07;;;15.80;90.30;;;;;;5013765;28;20026;-75
2023/01/13 16:33:17;;;;;;;16.42;6.95;;;15.40;91.00;;;;;;5003293;28;20160;-75
2023/01/13 16:58:34;;;;;;;18.25;7.47;;;14.30;92.80;;;;;;5167430;22;20176;-73
2023/01/13 17:01:02;;;;;;;22.67;6.72;;;14.40;92.90;;;;;;5047138;28;20050;-73
2023/01/13 17:03:30;;;;;;;17.20;6.38;;;14.40;92.90;;;;;;5061690;28;20036;-73
2023/01/13 17:06:00;;;;;;;28.20;7.80;;;14.20;93.10;;;;;;5052688;28;20037;-74
2023/01/13 17:08:26;;;;;;;17.35;7.68;;;14.10;93.30;;;;;;5054293;28;20036;-75
2023/01/13 17:10:51;;;;;;;19.67;5.57;;;14.10;93.40;;;;;;5059787;28;20032;-77
2023/01/13 17:13:18;;;;;;;14.07;5.93;;;14.00;93.20;;;;;;5057849;28;20025;-73
2023/01/13 17:15:44;;;;;;;17.25;5.75;;;13.80;93.00;;;;;;5061576;28;20032;-73
2023/01/13 17:18:12;;;;;;;14.70;5.93;;;13.90;93.20;;;;;;5056918;28;20483;-73
2023/01/13 17:20:39;;;;;;;16.88;6.22;;;13.90;93.30;;;;;;5060912;28;20104;-73
2023/01/13 17:23:05;;;;;;;16.45;6.50;;;13.80;93.30;;;;;;5069070;28;20040;-72
2023/01/13 17:25:31;;;;;;;15.25;6.07;;;13.80;93.30;;;;;;5057655;28;20025;-72
2023/01/13 17:27:57;;;;;;;15.77;5.30;;;13.80;93.30;;;;;;5059898;28;20028;-72
2023/01/13 17:30:22;;;;;;;21.83;5.22;;;13.70;93.40;;;;;;5061937;28;20051;-74
2023/01/13 17:32:49;;;;;;;11.32;4.88;;;13.70;93.50;;;;;;5057866;28;20029;-74
2023/01/13 17:35:18;;;;;;;14.27;5.68;;;13.60;93.40;;;;;;5062020;28;20120;-73
2023/01/13 17:37:44;;;;;;;13.85;4.93;;;13.50;93.50;;;;;;5054729;28;20059;-74
2023/01/13 17:40:10;;;;;;;15.25;5.28;;;13.50;93.40;;;;;;5060648;28;20017;-72
2023/01/13 17:42:36;;;;;;;17.55;6.07;;;13.50;93.60;;;;;;5059232;28;20082;-74
2023/01/13 17:45:02;;;;;;;16.45;6.00;;;13.40;93.70;;;;;;5060168;28;20859;-73
2023/01/13 17:47:28;;;;;;;13.00;5.38;;;13.40;93.80;;;;;;5063857;28;20429;-72
2023/01/13 17:49:54;;;;;;;13.82;5.10;;;13.40;94.00;;;;;;5060865;28;20036;-73
2023/01/13 17:52:20;;;;;;;16.42;5.15;;;13.30;94.10;;;;;;5061225;28;20028;-72
2023/01/13 17:54:45;;;;;;;12.55;5.82;;;13.30;94.20;;;;;;5064205;28;20050;-73
2023/01/13 17:57:11;;;;;;;18.33;6.22;;;13.20;94.20;;;;;;5062339;28;20442;-73
2023/01/13 17:59:39;;;;;;;16.25;5.47;;;13.10;94.40;;;;;;5061297;28;20028;-72
2023/01/13 18:02:05;;;;;;;17.15;5.75;;;13.10;94.30;;;;;;5054922;28;20048;-73
2023/01/13 18:04:30;;;;;;;13.82;5.75;;;13.00;94.60;;;;;;5060843;28;20028;-73
2023/01/13 18:06:56;;;;;;;14.02;5.05;;;13.00;94.60;;;;;;5055427;28;20033;-72